sensor_id;sensor_type;location;lat;lon;timestamp;P1;durP1;ratioP1;P2;durP2;ratioP2
42144;SDS011;27813;43.516;11.890;2022-10-31T00:01:49;4.60;;;2.50;;
42144;SDS011;27813;43.516;11.890;2022-10-31T00:05:53;5.82;;;2.50;;
42144;SDS011;27813;43.516;11.890;2022-10-31T00:09:57;8.90;;;2.47;;
42144;SDS011;27813;43.516;11.890;2022-10-31T00:14:02;3.83;;;2.38;;
42144;SDS011;27813;43.516;11.890;2022-10-31T00:18:07;4.05;;;2.47;;
42144;SDS011;27813;43.516;11.890;2022-10-31T00:22:14;4.00;;;2.45;;
42144;SDS011;27813;43.516;11.890;2022-10-31T00:26:18;3.95;;;2.22;;
42144;SDS011;27813;43.516;11.890;2022-10-31T04:22:51;3.00;;;2.10;;
42144;SDS011;27813;43.516;11.890;2022-10-31T04:26:55;4.28;;;2.30;;
42144;SDS011;27813;43.516;11.890;2022-10-31T04:31:00;3.45;;;2.05;;
42144;SDS011;27813;43.516;11.890;2022-10-31T04:35:04;4.97;;;2.10;;
42144;SDS011;27813;43.516;11.890;2022-10-31T04:43:17;7.03;;;2.40;;
42144;SDS011;27813;43.516;11.890;2022-10-31T04:47:27;6.00;;;2.25;;
42144;SDS011;27813;43.516;11.890;2022-10-31T04:51:36;2.78;;;1.63;;
42144;SDS011;27813;43.516;11.890;2022-10-31T04:55:40;6.33;;;2.87;;
42144;SDS011;27813;43.516;11.890;2022-10-31T04:59:57;5.05;;;2.50;;
42144;SDS011;27813;43.516;11.890;2022-10-31T05:04:00;4.10;;;2.25;;
42144;SDS011;27813;43.516;11.890;2022-10-31T05:08:07;3.53;;;1.85;;
42144;SDS011;27813;43.516;11.890;2022-10-31T05:12:11;5.00;;;2.20;;
42144;SDS011;27813;43.516;11.890;2022-10-31T05:16:44;3.88;;;2.03;;
42144;SDS011;27813;43.516;11.890;2022-10-31T05:21:15;2.53;;;1.75;;
42144;SDS011;27813;43.516;11.890;2022-10-31T05:25:24;6.85;;;1.98;;
42144;SDS011;27813;43.516;11.890;2022-10-31T05:29:30;2.85;;;1.80;;
42144;SDS011;27813;43.516;11.890;2022-10-31T05:33:38;5.43;;;2.70;;
42144;SDS011;27813;43.516;11.890;2022-10-31T05:38:00;4.30;;;1.70;;
42144;SDS011;27813;43.516;11.890;2022-10-31T05:42:04;4.85;;;2.00;;
42144;SDS011;27813;43.516;11.890;2022-10-31T05:46:26;4.40;;;1.85;;
42144;SDS011;27813;43.516;11.890;2022-10-31T05:51:02;2.85;;;1.80;;
42144;SDS011;27813;43.516;11.890;2022-10-31T05:55:06;2.17;;;1.30;;
42144;SDS011;27813;43.516;11.890;2022-10-31T05:59:12;3.30;;;1.85;;
42144;SDS011;27813;43.516;11.890;2022-10-31T06:03:16;5.43;;;2.60;;
42144;SDS011;27813;43.516;11.890;2022-10-31T06:07:26;4.55;;;2.35;;
42144;SDS011;27813;43.516;11.890;2022-10-31T06:11:34;4.63;;;2.35;;
42144;SDS011;27813;43.516;11.890;2022-10-31T06:15:38;7.20;;;1.95;;
42144;SDS011;27813;43.516;11.890;2022-10-31T06:19:43;4.00;;;2.25;;
42144;SDS011;27813;43.516;11.890;2022-10-31T06:23:52;4.72;;;1.75;;
42144;SDS011;27813;43.516;11.890;2022-10-31T06:28:18;5.25;;;2.03;;
42144;SDS011;27813;43.516;11.890;2022-10-31T06:32:32;3.45;;;1.90;;
42144;SDS011;27813;43.516;11.890;2022-10-31T06:36:39;4.47;;;1.55;;
42144;SDS011;27813;43.516;11.890;2022-10-31T06:40:44;3.75;;;2.03;;
42144;SDS011;27813;43.516;11.890;2022-10-31T06:45:00;3.47;;;1.98;;
42144;SDS011;27813;43.516;11.890;2022-10-31T06:49:22;3.35;;;2.00;;
42144;SDS011;27813;43.516;11.890;2022-10-31T06:53:29;6.72;;;2.28;;
42144;SDS011;27813;43.516;11.890;2022-10-31T06:57:33;5.80;;;2.40;;
42144;SDS011;27813;43.516;11.890;2022-10-31T07:01:38;5.22;;;2.38;;
42144;SDS011;27813;43.516;11.890;2022-10-31T07:05:42;4.93;;;2.83;;
42144;SDS011;27813;43.516;11.890;2022-10-31T07:13:55;3.83;;;2.00;;
42144;SDS011;27813;43.516;11.890;2022-10-31T07:18:00;4.07;;;2.10;;
42144;SDS011;27813;43.516;11.890;2022-10-31T07:22:05;5.45;;;2.35;;
42144;SDS011;27813;43.516;11.890;2022-10-31T07:26:10;5.75;;;2.08;;
42144;SDS011;27813;43.516;11.890;2022-10-31T07:30:19;8.57;;;2.80;;
42144;SDS011;27813;43.516;11.890;2022-10-31T07:34:28;4.70;;;2.60;;
42144;SDS011;27813;43.516;11.890;2022-10-31T07:39:11;5.63;;;2.80;;
42144;SDS011;27813;43.516;11.890;2022-10-31T07:43:16;5.57;;;2.65;;
42144;SDS011;27813;43.516;11.890;2022-10-31T07:47:49;5.22;;;2.38;;
42144;SDS011;27813;43.516;11.890;2022-10-31T07:52:15;8.90;;;3.03;;
42144;SDS011;27813;43.516;11.890;2022-10-31T07:56:42;5.90;;;3.28;;
42144;SDS011;27813;43.516;11.890;2022-10-31T08:00:46;5.27;;;3.50;;
42144;SDS011;27813;43.516;11.890;2022-10-31T08:05:01;6.68;;;3.55;;
42144;SDS011;27813;43.516;11.890;2022-10-31T08:09:24;7.80;;;3.95;;
42144;SDS011;27813;43.516;11.890;2022-10-31T08:13:30;12.32;;;4.75;;
42144;SDS011;27813;43.516;11.890;2022-10-31T08:17:37;10.00;;;4.10;;
42144;SDS011;27813;43.516;11.890;2022-10-31T08:21:43;9.02;;;4.15;;
42144;SDS011;27813;43.516;11.890;2022-10-31T08:25:47;8.05;;;4.20;;
42144;SDS011;27813;43.516;11.890;2022-10-31T08:29:52;8.20;;;3.72;;
42144;SDS011;27813;43.516;11.890;2022-10-31T08:33:58;7.15;;;3.15;;
42144;SDS011;27813;43.516;11.890;2022-10-31T08:38:27;7.28;;;2.95;;
42144;SDS011;27813;43.516;11.890;2022-10-31T08:42:32;6.30;;;2.33;;
42144;SDS011;27813;43.516;11.890;2022-10-31T08:46:36;8.73;;;2.92;;
42144;SDS011;27813;43.516;11.890;2022-10-31T08:50:40;5.63;;;2.83;;
42144;SDS011;27813;43.516;11.890;2022-10-31T08:54:46;6.38;;;2.30;;
42144;SDS011;27813;43.516;11.890;2022-10-31T08:59:12;5.18;;;2.97;;
42144;SDS011;27813;43.516;11.890;2022-10-31T09:03:35;6.22;;;3.10;;
42144;SDS011;27813;43.516;11.890;2022-10-31T09:07:40;6.50;;;3.03;;
42144;SDS011;27813;43.516;11.890;2022-10-31T09:11:46;6.05;;;2.78;;
42144;SDS011;27813;43.516;11.890;2022-10-31T09:15:52;4.32;;;2.75;;
42144;SDS011;27813;43.516;11.890;2022-10-31T09:20:00;6.63;;;2.80;;
42144;SDS011;27813;43.516;11.890;2022-10-31T09:24:08;5.88;;;2.65;;
42144;SDS011;27813;43.516;11.890;2022-10-31T09:28:12;8.95;;;2.88;;
42144;SDS011;27813;43.516;11.890;2022-10-31T09:32:20;7.75;;;4.22;;
42144;SDS011;27813;43.516;11.890;2022-10-31T09:36:23;7.47;;;3.30;;
42144;SDS011;27813;43.516;11.890;2022-10-31T09:40:32;6.65;;;3.45;;
42144;SDS011;27813;43.516;11.890;2022-10-31T09:44:46;13.27;;;4.72;;
42144;SDS011;27813;43.516;11.890;2022-10-31T09:53:42;12.93;;;3.50;;
42144;SDS011;27813;43.516;11.890;2022-10-31T09:58:08;22.25;;;5.05;;
42144;SDS011;27813;43.516;11.890;2022-10-31T10:02:24;5.70;;;3.15;;
42144;SDS011;27813;43.516;11.890;2022-10-31T10:06:32;7.45;;;2.95;;
42144;SDS011;27813;43.516;11.890;2022-10-31T10:20:03;7.18;;;2.53;;
42144;SDS011;27813;43.516;11.890;2022-10-31T10:28:38;10.70;;;2.67;;
42144;SDS011;27813;43.516;11.890;2022-10-31T10:37:00;5.43;;;2.92;;
42144;SDS011;27813;43.516;11.890;2022-10-31T10:41:20;4.68;;;2.63;;
42144;SDS011;27813;43.516;11.890;2022-10-31T10:45:26;7.40;;;2.90;;
42144;SDS011;27813;43.516;11.890;2022-10-31T10:49:52;9.27;;;2.75;;
42144;SDS011;27813;43.516;11.890;2022-10-31T10:58:35;5.15;;;2.53;;
42144;SDS011;27813;43.516;11.890;2022-10-31T11:02:43;13.15;;;3.83;;
42144;SDS011;27813;43.516;11.890;2022-10-31T11:06:58;15.07;;;4.22;;
42144;SDS011;27813;43.516;11.890;2022-10-31T11:15:21;3.45;;;2.53;;
42144;SDS011;27813;43.516;11.890;2022-10-31T11:19:27;3.25;;;2.03;;
42144;SDS011;27813;43.516;11.890;2022-10-31T11:23:32;5.95;;;2.63;;
42144;SDS011;27813;43.516;11.890;2022-10-31T11:27:36;4.57;;;2.53;;
42144;SDS011;27813;43.516;11.890;2022-10-31T11:31:40;5.10;;;2.33;;
42144;SDS011;27813;43.516;11.890;2022-10-31T11:35:47;4.20;;;2.67;;
42144;SDS011;27813;43.516;11.890;2022-10-31T11:40:00;5.10;;;2.70;;
42144;SDS011;27813;43.516;11.890;2022-10-31T11:44:20;8.77;;;3.15;;
42144;SDS011;27813;43.516;11.890;2022-10-31T11:48:28;5.00;;;2.22;;
42144;SDS011;27813;43.516;11.890;2022-10-31T11:52:37;8.27;;;2.55;;
42144;SDS011;27813;43.516;11.890;2022-10-31T11:56:43;5.68;;;2.60;;
42144;SDS011;27813;43.516;11.890;2022-10-31T12:00:49;7.75;;;2.53;;
42144;SDS011;27813;43.516;11.890;2022-10-31T12:05:06;6.68;;;2.95;;
42144;SDS011;27813;43.516;11.890;2022-10-31T12:09:22;8.65;;;3.55;;
42144;SDS011;27813;43.516;11.890;2022-10-31T12:13:47;4.03;;;2.50;;
42144;SDS011;27813;43.516;11.890;2022-10-31T12:32:09;7.80;;;2.92;;
42144;SDS011;27813;43.516;11.890;2022-10-31T12:36:25;6.03;;;2.53;;
42144;SDS011;27813;43.516;11.890;2022-10-31T12:45:08;6.75;;;2.55;;
42144;SDS011;27813;43.516;11.890;2022-10-31T12:58:33;4.55;;;2.05;;
42144;SDS011;27813;43.516;11.890;2022-10-31T13:03:09;5.10;;;2.30;;
42144;SDS011;27813;43.516;11.890;2022-10-31T13:07:46;4.43;;;2.83;;
42144;SDS011;27813;43.516;11.890;2022-10-31T13:12:09;8.88;;;2.47;;
42144;SDS011;27813;43.516;11.890;2022-10-31T13:16:19;4.70;;;2.17;;
42144;SDS011;27813;43.516;11.890;2022-10-31T13:20:30;5.25;;;2.55;;
42144;SDS011;27813;43.516;11.890;2022-10-31T13:24:55;8.40;;;2.88;;
42144;SDS011;27813;43.516;11.890;2022-10-31T13:29:18;7.13;;;3.95;;
42144;SDS011;27813;43.516;11.890;2022-10-31T13:33:39;6.53;;;2.78;;
42144;SDS011;27813;43.516;11.890;2022-10-31T13:42:19;4.43;;;2.53;;
42144;SDS011;27813;43.516;11.890;2022-10-31T13:50:37;4.82;;;2.65;;
42144;SDS011;27813;43.516;11.890;2022-10-31T13:54:45;4.68;;;2.40;;
42144;SDS011;27813;43.516;11.890;2022-10-31T13:58:58;7.15;;;3.00;;
42144;SDS011;27813;43.516;11.890;2022-10-31T14:03:25;4.10;;;2.60;;
42144;SDS011;27813;43.516;11.890;2022-10-31T14:07:52;3.92;;;3.20;;
42144;SDS011;27813;43.516;11.890;2022-10-31T14:12:08;5.45;;;2.25;;
42144;SDS011;27813;43.516;11.890;2022-10-31T14:16:32;6.13;;;2.17;;
42144;SDS011;27813;43.516;11.890;2022-10-31T14:20:41;3.83;;;2.20;;
42144;SDS011;27813;43.516;11.890;2022-10-31T14:24:47;4.45;;;2.33;;
42144;SDS011;27813;43.516;11.890;2022-10-31T14:46:14;4.63;;;2.55;;
42144;SDS011;27813;43.516;11.890;2022-10-31T14:54:37;6.15;;;3.30;;
42144;SDS011;27813;43.516;11.890;2022-10-31T14:58:47;8.98;;;2.50;;
42144;SDS011;27813;43.516;11.890;2022-10-31T15:07:22;5.40;;;2.90;;
42144;SDS011;27813;43.516;11.890;2022-10-31T15:11:28;6.15;;;2.70;;
42144;SDS011;27813;43.516;11.890;2022-10-31T15:15:40;6.25;;;2.80;;
42144;SDS011;27813;43.516;11.890;2022-10-31T15:19:51;4.53;;;2.70;;
42144;SDS011;27813;43.516;11.890;2022-10-31T15:23:57;4.97;;;2.50;;
42144;SDS011;27813;43.516;11.890;2022-10-31T15:28:12;4.63;;;2.40;;
42144;SDS011;27813;43.516;11.890;2022-10-31T15:32:19;3.20;;;2.40;;
42144;SDS011;27813;43.516;11.890;2022-10-31T15:36:28;4.93;;;2.50;;
42144;SDS011;27813;43.516;11.890;2022-10-31T15:40:37;6.97;;;2.38;;
42144;SDS011;27813;43.516;11.890;2022-10-31T15:44:43;9.10;;;3.33;;
42144;SDS011;27813;43.516;11.890;2022-10-31T15:48:51;5.47;;;2.70;;
42144;SDS011;27813;43.516;11.890;2022-10-31T15:52:55;6.32;;;2.80;;
42144;SDS011;27813;43.516;11.890;2022-10-31T15:57:00;8.35;;;3.10;;
42144;SDS011;27813;43.516;11.890;2022-10-31T16:01:04;4.43;;;2.83;;
42144;SDS011;27813;43.516;11.890;2022-10-31T16:05:33;15.57;;;4.35;;
42144;SDS011;27813;43.516;11.890;2022-10-31T16:09:51;6.47;;;2.90;;
42144;SDS011;27813;43.516;11.890;2022-10-31T16:14:05;11.52;;;3.13;;
42144;SDS011;27813;43.516;11.890;2022-10-31T16:18:16;8.40;;;3.22;;
42144;SDS011;27813;43.516;11.890;2022-10-31T16:22:23;11.00;;;4.15;;
42144;SDS011;27813;43.516;11.890;2022-10-31T16:26:29;12.30;;;6.03;;
42144;SDS011;27813;43.516;11.890;2022-10-31T16:35:12;7.70;;;4.10;;
42144;SDS011;27813;43.516;11.890;2022-10-31T16:39:21;7.28;;;4.00;;
42144;SDS011;27813;43.516;11.890;2022-10-31T16:43:27;11.95;;;5.30;;
42144;SDS011;27813;43.516;11.890;2022-10-31T16:47:31;7.05;;;4.30;;
42144;SDS011;27813;43.516;11.890;2022-10-31T16:51:35;11.30;;;5.38;;
42144;SDS011;27813;43.516;11.890;2022-10-31T16:55:57;11.18;;;5.85;;
42144;SDS011;27813;43.516;11.890;2022-10-31T17:00:02;13.98;;;4.88;;
42144;SDS011;27813;43.516;11.890;2022-10-31T17:04:08;11.18;;;4.30;;
42144;SDS011;27813;43.516;11.890;2022-10-31T17:08:16;12.25;;;5.70;;
42144;SDS011;27813;43.516;11.890;2022-10-31T17:12:20;14.70;;;6.07;;
42144;SDS011;27813;43.516;11.890;2022-10-31T17:16:28;7.45;;;4.13;;
42144;SDS011;27813;43.516;11.890;2022-10-31T17:20:32;8.65;;;5.45;;
42144;SDS011;27813;43.516;11.890;2022-10-31T17:24:40;9.55;;;6.00;;
42144;SDS011;27813;43.516;11.890;2022-10-31T17:28:44;12.88;;;5.72;;
42144;SDS011;27813;43.516;11.890;2022-10-31T17:32:48;11.30;;;4.78;;
42144;SDS011;27813;43.516;11.890;2022-10-31T17:36:53;7.97;;;5.15;;
42144;SDS011;27813;43.516;11.890;2022-10-31T17:41:03;7.68;;;6.22;;
42144;SDS011;27813;43.516;11.890;2022-10-31T17:45:13;13.70;;;8.63;;
42144;SDS011;27813;43.516;11.890;2022-10-31T17:49:17;11.32;;;4.97;;
42144;SDS011;27813;43.516;11.890;2022-10-31T17:53:21;11.02;;;4.95;;
42144;SDS011;27813;43.516;11.890;2022-10-31T17:57:25;9.43;;;5.28;;
42144;SDS011;27813;43.516;11.890;2022-10-31T18:01:30;11.48;;;6.00;;
42144;SDS011;27813;43.516;11.890;2022-10-31T18:05:36;17.40;;;9.20;;
42144;SDS011;27813;43.516;11.890;2022-10-31T18:09:40;7.22;;;4.80;;
42144;SDS011;27813;43.516;11.890;2022-10-31T18:13:44;8.05;;;4.45;;
42144;SDS011;27813;43.516;11.890;2022-10-31T18:17:48;13.65;;;6.38;;
42144;SDS011;27813;43.516;11.890;2022-10-31T18:21:52;9.20;;;4.93;;
42144;SDS011;27813;43.516;11.890;2022-10-31T18:25:59;13.05;;;4.63;;
42144;SDS011;27813;43.516;11.890;2022-10-31T18:34:08;9.52;;;4.63;;
42144;SDS011;27813;43.516;11.890;2022-10-31T18:38:11;9.65;;;3.95;;
42144;SDS011;27813;43.516;11.890;2022-10-31T18:42:15;7.63;;;4.70;;
42144;SDS011;27813;43.516;11.890;2022-10-31T18:46:19;6.30;;;3.78;;
42144;SDS011;27813;43.516;11.890;2022-10-31T18:50:24;8.90;;;4.35;;
42144;SDS011;27813;43.516;11.890;2022-10-31T18:54:28;14.35;;;5.18;;
42144;SDS011;27813;43.516;11.890;2022-10-31T18:58:32;11.00;;;6.78;;
42144;SDS011;27813;43.516;11.890;2022-10-31T19:02:38;11.27;;;6.10;;
42144;SDS011;27813;43.516;11.890;2022-10-31T19:06:42;10.10;;;5.57;;
42144;SDS011;27813;43.516;11.890;2022-10-31T19:10:46;11.70;;;5.70;;
42144;SDS011;27813;43.516;11.890;2022-10-31T19:14:49;13.20;;;6.25;;
42144;SDS011;27813;43.516;11.890;2022-10-31T19:18:54;6.20;;;3.90;;
42144;SDS011;27813;43.516;11.890;2022-10-31T19:22:59;5.68;;;3.38;;
42144;SDS011;27813;43.516;11.890;2022-10-31T19:27:03;5.38;;;4.00;;
42144;SDS011;27813;43.516;11.890;2022-10-31T19:31:07;9.30;;;5.25;;
42144;SDS011;27813;43.516;11.890;2022-10-31T19:35:14;8.57;;;4.18;;
42144;SDS011;27813;43.516;11.890;2022-10-31T19:39:18;9.52;;;4.15;;
42144;SDS011;27813;43.516;11.890;2022-10-31T19:43:22;8.07;;;4.77;;
42144;SDS011;27813;43.516;11.890;2022-10-31T19:47:29;10.02;;;4.05;;
42144;SDS011;27813;43.516;11.890;2022-10-31T19:51:33;8.32;;;4.88;;
42144;SDS011;27813;43.516;11.890;2022-10-31T19:55:41;11.60;;;5.15;;
42144;SDS011;27813;43.516;11.890;2022-10-31T19:59:52;7.65;;;4.45;;
42144;SDS011;27813;43.516;11.890;2022-10-31T20:03:57;10.10;;;5.00;;
42144;SDS011;27813;43.516;11.890;2022-10-31T20:08:00;12.73;;;5.47;;
42144;SDS011;27813;43.516;11.890;2022-10-31T20:12:05;8.00;;;5.30;;
42144;SDS011;27813;43.516;11.890;2022-10-31T20:16:12;8.15;;;4.40;;
42144;SDS011;27813;43.516;11.890;2022-10-31T20:20:17;10.70;;;5.95;;
42144;SDS011;27813;43.516;11.890;2022-10-31T20:24:21;11.48;;;5.30;;
42144;SDS011;27813;43.516;11.890;2022-10-31T20:28:25;11.60;;;6.65;;
42144;SDS011;27813;43.516;11.890;2022-10-31T20:32:31;9.18;;;5.70;;
42144;SDS011;27813;43.516;11.890;2022-10-31T20:36:37;6.93;;;4.28;;
42144;SDS011;27813;43.516;11.890;2022-10-31T20:40:41;8.52;;;4.75;;
42144;SDS011;27813;43.516;11.890;2022-10-31T20:44:45;12.27;;;5.00;;
42144;SDS011;27813;43.516;11.890;2022-10-31T20:48:51;8.45;;;5.35;;
42144;SDS011;27813;43.516;11.890;2022-10-31T20:52:59;9.93;;;5.70;;
42144;SDS011;27813;43.516;11.890;2022-10-31T20:57:08;8.45;;;4.03;;
42144;SDS011;27813;43.516;11.890;2022-10-31T21:01:13;7.43;;;3.47;;
42144;SDS011;27813;43.516;11.890;2022-10-31T21:05:24;15.18;;;4.30;;
42144;SDS011;27813;43.516;11.890;2022-10-31T21:09:29;9.85;;;6.15;;
42144;SDS011;27813;43.516;11.890;2022-10-31T21:13:36;9.33;;;4.70;;
42144;SDS011;27813;43.516;11.890;2022-10-31T21:17:43;8.27;;;3.90;;
42144;SDS011;27813;43.516;11.890;2022-10-31T21:21:47;8.40;;;4.40;;
42144;SDS011;27813;43.516;11.890;2022-10-31T21:25:51;8.68;;;3.70;;
42144;SDS011;27813;43.516;11.890;2022-10-31T21:29:56;8.38;;;4.07;;
42144;SDS011;27813;43.516;11.890;2022-10-31T21:34:01;10.50;;;5.05;;
42144;SDS011;27813;43.516;11.890;2022-10-31T21:38:07;10.48;;;4.45;;
42144;SDS011;27813;43.516;11.890;2022-10-31T21:42:12;8.57;;;4.32;;
42144;SDS011;27813;43.516;11.890;2022-10-31T21:46:28;6.60;;;3.78;;
42144;SDS011;27813;43.516;11.890;2022-10-31T21:50:34;5.38;;;3.20;;
42144;SDS011;27813;43.516;11.890;2022-10-31T21:54:40;9.40;;;3.92;;
42144;SDS011;27813;43.516;11.890;2022-10-31T21:58:43;6.77;;;4.07;;
42144;SDS011;27813;43.516;11.890;2022-10-31T22:02:47;6.72;;;4.05;;
42144;SDS011;27813;43.516;11.890;2022-10-31T22:06:51;7.20;;;3.85;;
42144;SDS011;27813;43.516;11.890;2022-10-31T22:10:55;10.07;;;4.05;;
42144;SDS011;27813;43.516;11.890;2022-10-31T22:15:03;9.82;;;4.30;;
42144;SDS011;27813;43.516;11.890;2022-10-31T22:19:10;8.45;;;4.25;;
42144;SDS011;27813;43.516;11.890;2022-10-31T22:23:15;8.88;;;4.00;;
42144;SDS011;27813;43.516;11.890;2022-10-31T22:27:20;9.73;;;4.45;;
42144;SDS011;27813;43.516;11.890;2022-10-31T22:31:24;6.50;;;3.80;;
42144;SDS011;27813;43.516;11.890;2022-10-31T22:35:29;9.35;;;5.15;;
42144;SDS011;27813;43.516;11.890;2022-10-31T22:39:33;7.47;;;4.60;;
42144;SDS011;27813;43.516;11.890;2022-10-31T22:43:36;6.27;;;3.43;;
42144;SDS011;27813;43.516;11.890;2022-10-31T22:47:40;9.40;;;4.93;;
42144;SDS011;27813;43.516;11.890;2022-10-31T22:51:44;8.23;;;4.07;;
42144;SDS011;27813;43.516;11.890;2022-10-31T22:55:48;9.47;;;5.10;;
42144;SDS011;27813;43.516;11.890;2022-10-31T22:59:52;6.43;;;3.63;;
42144;SDS011;27813;43.516;11.890;2022-10-31T23:03:57;8.65;;;3.75;;
42144;SDS011;27813;43.516;11.890;2022-10-31T23:08:01;6.20;;;4.50;;
42144;SDS011;27813;43.516;11.890;2022-10-31T23:16:28;9.48;;;4.40;;
42144;SDS011;27813;43.516;11.890;2022-10-31T23:20:32;4.95;;;3.38;;
42144;SDS011;27813;43.516;11.890;2022-10-31T23:24:43;8.10;;;3.90;;
42144;SDS011;27813;43.516;11.890;2022-10-31T23:28:48;11.70;;;4.00;;
42144;SDS011;27813;43.516;11.890;2022-10-31T23:32:52;6.73;;;4.30;;
42144;SDS011;27813;43.516;11.890;2022-10-31T23:36:56;7.37;;;4.20;;
42144;SDS011;27813;43.516;11.890;2022-10-31T23:41:00;7.07;;;3.47;;
42144;SDS011;27813;43.516;11.890;2022-10-31T23:45:04;7.93;;;3.97;;
42144;SDS011;27813;43.516;11.890;2022-10-31T23:49:08;7.18;;;3.17;;
42144;SDS011;27813;43.516;11.890;2022-10-31T23:53:12;5.67;;;3.20;;
42144;SDS011;27813;43.516;11.890;2022-10-31T23:57:16;8.60;;;3.90;;
